Terminal Aerodrome Forecast
Issued by NWS Riverton, WY

Home | Current Version | Previous Version | Text Only | Print | Product List | Glossary On
Versions: 1 2 3 4 5 6 7 8 9 10 11 12
596
FTUS45 KRIW 050523
TAFRIW
TAF
KRIW 050523Z 0506/0606 21008KT P6SM SCT110
     FM052000 15009KT P6SM SCT090 BKN150
     FM060200 30011KT P6SM SCT070 BKN100=

USA.gov is the U.S. government's official web portal to all federal, state and local government web resources and services.